sensor_id;sensor_type;location;lat;lon;timestamp;pressure;altitude;pressure_sealevel;temperature;humidity
23016;BME280;11674;52.428;13.584;2023-10-31T00:01:04;99248.56;;;11.00;86.86
23016;BME280;11674;52.428;13.584;2023-10-31T00:06:11;99266.13;;;11.00;86.46
23016;BME280;11674;52.428;13.584;2023-10-31T00:11:23;99280.88;;;11.01;86.21
23016;BME280;11674;52.428;13.584;2023-10-31T00:16:30;99278.09;;;11.01;86.33
23016;BME280;11674;52.428;13.584;2023-10-31T00:21:37;99254.50;;;10.98;86.17
23016;BME280;11674;52.428;13.584;2023-10-31T00:26:44;99259.09;;;10.91;86.07
23016;BME280;11674;52.428;13.584;2023-10-31T00:31:51;99250.22;;;10.89;86.08
23016;BME280;11674;52.428;13.584;2023-10-31T00:36:58;99245.81;;;10.88;85.98
23016;BME280;11674;52.428;13.584;2023-10-31T00:42:06;99244.09;;;10.83;85.93
23016;BME280;11674;52.428;13.584;2023-10-31T00:47:12;99239.56;;;10.79;86.05
23016;BME280;11674;52.428;13.584;2023-10-31T00:52:19;99243.53;;;10.78;86.21
23016;BME280;11674;52.428;13.584;2023-10-31T00:57:26;99237.59;;;10.79;86.33
23016;BME280;11674;52.428;13.584;2023-10-31T01:02:33;99227.25;;;10.80;86.21
23016;BME280;11674;52.428;13.584;2023-10-31T01:07:40;99218.53;;;10.81;85.96
23016;BME280;11674;52.428;13.584;2023-10-31T01:12:48;99197.53;;;10.72;85.63
23016;BME280;11674;52.428;13.584;2023-10-31T01:17:54;99200.66;;;10.58;86.06
23016;BME280;11674;52.428;13.584;2023-10-31T01:23:08;99206.84;;;10.52;86.39
23016;BME280;11674;52.428;13.584;2023-10-31T01:28:17;99175.81;;;10.53;86.20
23016;BME280;11674;52.428;13.584;2023-10-31T01:33:27;99199.44;;;10.44;86.18
23016;BME280;11674;52.428;13.584;2023-10-31T01:38:34;99185.50;;;10.44;86.42
23016;BME280;11674;52.428;13.584;2023-10-31T01:43:42;99178.16;;;10.39;86.10
23016;BME280;11674;52.428;13.584;2023-10-31T01:48:48;99159.03;;;10.38;86.55
23016;BME280;11674;52.428;13.584;2023-10-31T01:53:57;99162.94;;;10.37;86.10
23016;BME280;11674;52.428;13.584;2023-10-31T01:59:05;99159.72;;;10.35;85.96
23016;BME280;11674;52.428;13.584;2023-10-31T02:04:12;99165.19;;;10.31;85.97
23016;BME280;11674;52.428;13.584;2023-10-31T02:09:19;99162.75;;;10.30;86.27
23016;BME280;11674;52.428;13.584;2023-10-31T02:14:27;99143.94;;;10.27;86.20
23016;BME280;11674;52.428;13.584;2023-10-31T02:19:34;99134.31;;;10.24;86.11
23016;BME280;11674;52.428;13.584;2023-10-31T02:24:40;99121.06;;;10.21;86.36
23016;BME280;11674;52.428;13.584;2023-10-31T02:29:47;99106.78;;;10.23;86.50
23016;BME280;11674;52.428;13.584;2023-10-31T02:34:55;99101.56;;;10.21;86.64
23016;BME280;11674;52.428;13.584;2023-10-31T02:40:02;99091.09;;;10.18;86.40
23016;BME280;11674;52.428;13.584;2023-10-31T02:45:10;99090.66;;;10.16;86.54
23016;BME280;11674;52.428;13.584;2023-10-31T02:50:20;99087.41;;;10.14;86.62
23016;BME280;11674;52.428;13.584;2023-10-31T02:55:29;99083.00;;;10.13;86.44
23016;BME280;11674;52.428;13.584;2023-10-31T03:00:36;99083.72;;;10.10;86.33
23016;BME280;11674;52.428;13.584;2023-10-31T03:05:43;99080.47;;;10.08;86.60
23016;BME280;11674;52.428;13.584;2023-10-31T03:10:50;99072.91;;;10.09;86.73
23016;BME280;11674;52.428;13.584;2023-10-31T03:15:57;99068.16;;;10.09;86.74
23016;BME280;11674;52.428;13.584;2023-10-31T03:21:04;99066.41;;;10.05;86.66
23016;BME280;11674;52.428;13.584;2023-10-31T03:26:11;99074.75;;;10.05;86.56
23016;BME280;11674;52.428;13.584;2023-10-31T03:31:18;99078.28;;;10.02;86.78
23016;BME280;11674;52.428;13.584;2023-10-31T03:36:25;99081.06;;;10.02;86.66
23016;BME280;11674;52.428;13.584;2023-10-31T03:41:32;99076.66;;;10.01;86.90
23016;BME280;11674;52.428;13.584;2023-10-31T03:46:39;99077.34;;;9.98;86.61
23016;BME280;11674;52.428;13.584;2023-10-31T03:51:46;99077.94;;;9.91;86.78
23016;BME280;11674;52.428;13.584;2023-10-31T03:56:53;99092.94;;;9.87;87.17
23016;BME280;11674;52.428;13.584;2023-10-31T04:02:00;99079.44;;;9.89;87.23
23016;BME280;11674;52.428;13.584;2023-10-31T04:07:07;99086.66;;;9.90;87.22
23016;BME280;11674;52.428;13.584;2023-10-31T04:12:14;99079.44;;;9.89;87.06
23016;BME280;11674;52.428;13.584;2023-10-31T04:17:21;99086.91;;;9.85;87.25
23016;BME280;11674;52.428;13.584;2023-10-31T04:22:30;99082.50;;;9.84;87.25
23016;BME280;11674;52.428;13.584;2023-10-31T04:27:43;99084.13;;;9.85;87.47
23016;BME280;11674;52.428;13.584;2023-10-31T04:32:50;99082.50;;;9.84;87.58
23016;BME280;11674;52.428;13.584;2023-10-31T04:37:57;99074.84;;;9.81;87.59
23016;BME280;11674;52.428;13.584;2023-10-31T04:43:04;99075.66;;;9.81;87.42
23016;BME280;11674;52.428;13.584;2023-10-31T04:48:11;99076.78;;;9.80;87.65
23016;BME280;11674;52.428;13.584;2023-10-31T04:53:18;99071.69;;;9.82;87.61
23016;BME280;11674;52.428;13.584;2023-10-31T04:58:25;99074.84;;;9.81;87.44
23016;BME280;11674;52.428;13.584;2023-10-31T05:03:32;99069.72;;;9.83;87.76
23016;BME280;11674;52.428;13.584;2023-10-31T05:08:39;99069.81;;;9.86;87.74
23016;BME280;11674;52.428;13.584;2023-10-31T05:13:46;99076.56;;;9.85;87.74
23016;BME280;11674;52.428;13.584;2023-10-31T05:18:53;99070.66;;;9.87;87.81
23016;BME280;11674;52.428;13.584;2023-10-31T05:24:00;99074.34;;;9.91;88.01
23016;BME280;11674;52.428;13.584;2023-10-31T05:29:07;99065.28;;;9.94;88.07
23016;BME280;11674;52.428;13.584;2023-10-31T05:34:16;99073.06;;;10.00;87.73
23016;BME280;11674;52.428;13.584;2023-10-31T05:39:23;99075.03;;;10.00;87.75
23016;BME280;11674;52.428;13.584;2023-10-31T05:44:30;99075.72;;;9.97;87.80
23016;BME280;11674;52.428;13.584;2023-10-31T05:49:37;99071.09;;;10.01;88.10
23016;BME280;11674;52.428;13.584;2023-10-31T05:54:44;99079.78;;;9.99;88.03
23016;BME280;11674;52.428;13.584;2023-10-31T05:59:51;99072.59;;;9.98;87.92
23016;BME280;11674;52.428;13.584;2023-10-31T06:04:58;99080.63;;;10.00;88.06
23016;BME280;11674;52.428;13.584;2023-10-31T06:10:05;99081.84;;;10.02;88.25
23016;BME280;11674;52.428;13.584;2023-10-31T06:15:13;99092.66;;;10.04;88.54
23016;BME280;11674;52.428;13.584;2023-10-31T06:20:20;99095.19;;;10.09;88.75
23016;BME280;11674;52.428;13.584;2023-10-31T06:25:27;99106.59;;;10.16;88.91
23016;BME280;11674;52.428;13.584;2023-10-31T06:30:34;99121.91;;;10.22;89.28
23016;BME280;11674;52.428;13.584;2023-10-31T06:35:41;99122.09;;;10.29;89.14
23016;BME280;11674;52.428;13.584;2023-10-31T06:40:48;99124.75;;;10.37;89.23
23016;BME280;11674;52.428;13.584;2023-10-31T06:45:55;99131.69;;;10.43;88.73
23016;BME280;11674;52.428;13.584;2023-10-31T06:51:02;99144.59;;;10.48;89.15
23016;BME280;11674;52.428;13.584;2023-10-31T06:56:09;99148.03;;;10.57;88.92
23016;BME280;11674;52.428;13.584;2023-10-31T07:01:16;99149.44;;;10.63;88.88
23016;BME280;11674;52.428;13.584;2023-10-31T07:06:23;99152.78;;;10.68;89.22
23016;BME280;11674;52.428;13.584;2023-10-31T07:11:30;99159.38;;;10.76;89.14
23016;BME280;11674;52.428;13.584;2023-10-31T07:16:37;99177.16;;;10.83;89.21
23016;BME280;11674;52.428;13.584;2023-10-31T07:21:44;99176.06;;;10.88;89.08
23016;BME280;11674;52.428;13.584;2023-10-31T07:26:51;99177.00;;;10.92;89.13
23016;BME280;11674;52.428;13.584;2023-10-31T07:31:58;99183.84;;;10.94;88.94
23016;BME280;11674;52.428;13.584;2023-10-31T07:37:05;99198.16;;;10.93;89.05
23016;BME280;11674;52.428;13.584;2023-10-31T07:42:12;99226.63;;;10.86;87.99
23016;BME280;11674;52.428;13.584;2023-10-31T07:47:19;99234.38;;;10.65;87.25
23016;BME280;11674;52.428;13.584;2023-10-31T07:52:26;99232.53;;;10.45;86.79
23016;BME280;11674;52.428;13.584;2023-10-31T07:57:33;99230.13;;;10.32;86.38
23016;BME280;11674;52.428;13.584;2023-10-31T08:02:43;99236.97;;;10.22;86.70
23016;BME280;11674;52.428;13.584;2023-10-31T08:07:50;99229.66;;;10.18;86.74
23016;BME280;11674;52.428;13.584;2023-10-31T08:12:57;99244.38;;;10.18;87.02
23016;BME280;11674;52.428;13.584;2023-10-31T08:18:04;99253.34;;;10.24;87.43
23016;BME280;11674;52.428;13.584;2023-10-31T08:23:11;99267.88;;;10.29;87.39
23016;BME280;11674;52.428;13.584;2023-10-31T08:28:18;99279.59;;;10.35;87.77
23016;BME280;11674;52.428;13.584;2023-10-31T08:33:25;99311.75;;;10.44;87.69
23016;BME280;11674;52.428;13.584;2023-10-31T08:38:35;99306.53;;;10.55;88.07
23016;BME280;11674;52.428;13.584;2023-10-31T08:43:45;99315.16;;;10.62;88.31
23016;BME280;11674;52.428;13.584;2023-10-31T08:48:59;99308.41;;;10.63;88.40
23016;BME280;11674;52.428;13.584;2023-10-31T08:54:06;99308.41;;;10.63;88.00
23016;BME280;11674;52.428;13.584;2023-10-31T08:59:16;99320.28;;;10.60;88.29
23016;BME280;11674;52.428;13.584;2023-10-31T09:04:23;99331.31;;;10.68;88.63
23016;BME280;11674;52.428;13.584;2023-10-31T09:09:33;99329.09;;;10.86;88.75
23016;BME280;11674;52.428;13.584;2023-10-31T09:14:42;99338.50;;;10.93;88.37
23016;BME280;11674;52.428;13.584;2023-10-31T09:19:49;99335.13;;;10.88;87.83
23016;BME280;11674;52.428;13.584;2023-10-31T09:24:56;99331.63;;;10.79;87.64
23016;BME280;11674;52.428;13.584;2023-10-31T09:30:03;99345.81;;;10.74;87.91
23016;BME280;11674;52.428;13.584;2023-10-31T09:35:11;99342.69;;;10.75;88.01
23016;BME280;11674;52.428;13.584;2023-10-31T09:40:18;99357.78;;;10.86;88.55
23016;BME280;11674;52.428;13.584;2023-10-31T09:45:25;99369.75;;;10.99;88.45
23016;BME280;11674;52.428;13.584;2023-10-31T09:50:35;99375.19;;;11.07;88.40
23016;BME280;11674;52.428;13.584;2023-10-31T09:55:43;99375.41;;;11.14;88.39
23016;BME280;11674;52.428;13.584;2023-10-31T10:00:50;99412.72;;;11.22;88.69
23016;BME280;11674;52.428;13.584;2023-10-31T10:05:57;99386.56;;;11.26;88.46
23016;BME280;11674;52.428;13.584;2023-10-31T10:11:05;99382.47;;;11.36;88.68
23016;BME280;11674;52.428;13.584;2023-10-31T10:16:12;99411.75;;;11.42;88.35
23016;BME280;11674;52.428;13.584;2023-10-31T10:21:19;99410.34;;;11.48;88.50
23016;BME280;11674;52.428;13.584;2023-10-31T10:26:26;99416.03;;;11.51;88.49
23016;BME280;11674;52.428;13.584;2023-10-31T10:31:33;99404.38;;;11.61;88.68
23016;BME280;11674;52.428;13.584;2023-10-31T10:36:40;99400.28;;;11.71;88.39
23016;BME280;11674;52.428;13.584;2023-10-31T10:41:52;99393.28;;;11.65;88.27
23016;BME280;11674;52.428;13.584;2023-10-31T10:47:12;99398.69;;;11.58;88.35
23016;BME280;11674;52.428;13.584;2023-10-31T10:52:24;99412.66;;;11.58;88.45
23016;BME280;11674;52.428;13.584;2023-10-31T10:57:53;99404.09;;;11.78;89.17
23016;BME280;11674;52.428;13.584;2023-10-31T11:03:04;99395.69;;;11.90;89.03
23016;BME280;11674;52.428;13.584;2023-10-31T11:08:11;99391.56;;;12.00;88.59
23016;BME280;11674;52.428;13.584;2023-10-31T11:13:19;99401.03;;;11.95;88.69
23016;BME280;11674;52.428;13.584;2023-10-31T11:18:27;99410.78;;;12.01;89.24
23016;BME280;11674;52.428;13.584;2023-10-31T11:23:35;99402.88;;;12.19;89.26
23016;BME280;11674;52.428;13.584;2023-10-31T11:28:42;99406.34;;;12.43;89.77
23016;BME280;11674;52.428;13.584;2023-10-31T11:33:49;99410.13;;;12.51;88.72
23016;BME280;11674;52.428;13.584;2023-10-31T11:39:18;99408.75;;;12.45;88.97
23016;BME280;11674;52.428;13.584;2023-10-31T11:44:26;99425.09;;;12.43;88.18
23016;BME280;11674;52.428;13.584;2023-10-31T11:49:46;99421.56;;;12.30;88.03
23016;BME280;11674;52.428;13.584;2023-10-31T11:54:53;99449.16;;;12.16;88.00
23016;BME280;11674;52.428;13.584;2023-10-31T12:00:00;99450.25;;;12.00;87.66
23016;BME280;11674;52.428;13.584;2023-10-31T12:05:13;99450.47;;;11.79;87.89
23016;BME280;11674;52.428;13.584;2023-10-31T12:10:30;99450.34;;;11.64;87.97
23016;BME280;11674;52.428;13.584;2023-10-31T12:15:37;99454.47;;;11.54;87.76
23016;BME280;11674;52.428;13.584;2023-10-31T12:20:48;99455.13;;;11.63;89.87
23016;BME280;11674;52.428;13.584;2023-10-31T12:25:55;99455.09;;;12.15;88.65
23016;BME280;11674;52.428;13.584;2023-10-31T12:31:02;99459.09;;;12.02;87.89
23016;BME280;11674;52.428;13.584;2023-10-31T12:36:09;99466.06;;;11.80;87.79
23016;BME280;11674;52.428;13.584;2023-10-31T12:41:16;99503.44;;;11.64;87.91
23016;BME280;11674;52.428;13.584;2023-10-31T12:46:27;99508.47;;;11.58;88.43
23016;BME280;11674;52.428;13.584;2023-10-31T12:51:35;99526.03;;;11.59;88.40
23016;BME280;11674;52.428;13.584;2023-10-31T12:56:42;99508.31;;;11.67;88.78
23016;BME280;11674;52.428;13.584;2023-10-31T13:01:49;99511.56;;;11.69;88.85
23016;BME280;11674;52.428;13.584;2023-10-31T13:07:07;99515.53;;;11.68;88.72
23016;BME280;11674;52.428;13.584;2023-10-31T13:12:14;99529.75;;;11.63;88.30
23016;BME280;11674;52.428;13.584;2023-10-31T13:17:21;99530.72;;;11.55;87.96
23016;BME280;11674;52.428;13.584;2023-10-31T13:22:28;99570.16;;;11.53;88.98
23016;BME280;11674;52.428;13.584;2023-10-31T13:27:36;99558.03;;;11.61;88.91
23016;BME280;11674;52.428;13.584;2023-10-31T13:32:44;99541.50;;;11.68;88.33
23016;BME280;11674;52.428;13.584;2023-10-31T13:37:51;99555.34;;;11.65;88.47
23016;BME280;11674;52.428;13.584;2023-10-31T13:42:58;99546.50;;;11.63;88.37
23016;BME280;11674;52.428;13.584;2023-10-31T13:48:07;99560.81;;;11.61;88.00
23016;BME280;11674;52.428;13.584;2023-10-31T13:53:14;99592.63;;;11.57;88.09
23016;BME280;11674;52.428;13.584;2023-10-31T13:58:21;99584.34;;;11.48;88.17
23016;BME280;11674;52.428;13.584;2023-10-31T14:03:28;99615.31;;;11.43;88.30
23016;BME280;11674;52.428;13.584;2023-10-31T14:08:35;99635.78;;;11.35;88.12
23016;BME280;11674;52.428;13.584;2023-10-31T14:13:42;99662.88;;;11.23;87.78
23016;BME280;11674;52.428;13.584;2023-10-31T14:18:49;99666.78;;;11.10;87.43
23016;BME280;11674;52.428;13.584;2023-10-31T14:23:56;99662.69;;;10.95;87.16
23016;BME280;11674;52.428;13.584;2023-10-31T14:29:03;99664.16;;;10.81;87.68
23016;BME280;11674;52.428;13.584;2023-10-31T14:34:10;99681.09;;;10.76;87.81
23016;BME280;11674;52.428;13.584;2023-10-31T14:39:19;99685.25;;;10.70;87.75
23016;BME280;11674;52.428;13.584;2023-10-31T14:44:26;99694.03;;;10.60;87.55
23016;BME280;11674;52.428;13.584;2023-10-31T14:49:33;99707.66;;;10.53;87.65
23016;BME280;11674;52.428;13.584;2023-10-31T14:54:40;99722.81;;;10.43;87.63
23016;BME280;11674;52.428;13.584;2023-10-31T14:59:47;99742.66;;;10.21;86.46
23016;BME280;11674;52.428;13.584;2023-10-31T15:04:54;99758.56;;;9.92;86.05
23016;BME280;11674;52.428;13.584;2023-10-31T15:10:01;99763.09;;;9.59;85.91
23016;BME280;11674;52.428;13.584;2023-10-31T15:15:08;99770.69;;;9.41;86.65
23016;BME280;11674;52.428;13.584;2023-10-31T15:20:15;99780.50;;;9.30;87.20
23016;BME280;11674;52.428;13.584;2023-10-31T15:25:22;99788.69;;;9.27;87.80
23016;BME280;11674;52.428;13.584;2023-10-31T15:30:29;99797.03;;;9.27;88.02
23016;BME280;11674;52.428;13.584;2023-10-31T15:35:36;99809.16;;;9.31;88.04
23016;BME280;11674;52.428;13.584;2023-10-31T15:40:43;99811.75;;;9.27;87.62
23016;BME280;11674;52.428;13.584;2023-10-31T15:45:50;99824.72;;;9.23;87.89
23016;BME280;11674;52.428;13.584;2023-10-31T15:50:57;99811.63;;;9.15;87.67
23016;BME280;11674;52.428;13.584;2023-10-31T15:56:04;99829.63;;;9.09;87.56
23016;BME280;11674;52.428;13.584;2023-10-31T16:01:11;99837.97;;;9.01;87.73
23016;BME280;11674;52.428;13.584;2023-10-31T16:06:18;99853.19;;;8.95;87.78
23016;BME280;11674;52.428;13.584;2023-10-31T16:11:25;99850.56;;;8.90;87.75
23016;BME280;11674;52.428;13.584;2023-10-31T16:16:32;99854.34;;;8.85;88.17
23016;BME280;11674;52.428;13.584;2023-10-31T16:21:39;99858.22;;;8.84;88.13
23016;BME280;11674;52.428;13.584;2023-10-31T16:26:46;99864.78;;;8.88;88.20
23016;BME280;11674;52.428;13.584;2023-10-31T16:31:53;99870.34;;;8.88;88.17
23016;BME280;11674;52.428;13.584;2023-10-31T16:37:00;99869.56;;;8.88;88.21
23016;BME280;11674;52.428;13.584;2023-10-31T16:42:07;99876.59;;;8.85;88.39
23016;BME280;11674;52.428;13.584;2023-10-31T16:47:14;99879.53;;;8.89;88.18
23016;BME280;11674;52.428;13.584;2023-10-31T16:52:21;99870.84;;;8.90;88.26
23016;BME280;11674;52.428;13.584;2023-10-31T16:57:28;99888.84;;;8.93;88.25
23016;BME280;11674;52.428;13.584;2023-10-31T17:02:35;99897.53;;;8.91;87.98
23016;BME280;11674;52.428;13.584;2023-10-31T17:07:42;99902.94;;;8.88;87.92
23016;BME280;11674;52.428;13.584;2023-10-31T17:12:49;99901.44;;;8.90;87.97
23016;BME280;11674;52.428;13.584;2023-10-31T17:17:56;99902.13;;;8.96;88.00
23016;BME280;11674;52.428;13.584;2023-10-31T17:23:03;99906.22;;;8.98;88.15
23016;BME280;11674;52.428;13.584;2023-10-31T17:28:10;99917.50;;;9.02;88.05
23016;BME280;11674;52.428;13.584;2023-10-31T17:33:17;99919.97;;;8.95;87.16
23016;BME280;11674;52.428;13.584;2023-10-31T17:38:24;99917.47;;;8.85;87.23
23016;BME280;11674;52.428;13.584;2023-10-31T17:43:31;99931.38;;;8.76;87.50
23016;BME280;11674;52.428;13.584;2023-10-31T17:48:38;99941.31;;;8.69;87.29
23016;BME280;11674;52.428;13.584;2023-10-31T17:53:45;99945.38;;;8.63;87.44
23016;BME280;11674;52.428;13.584;2023-10-31T17:58:52;99956.81;;;8.61;87.67
23016;BME280;11674;52.428;13.584;2023-10-31T18:03:59;99963.22;;;8.62;87.70
23016;BME280;11674;52.428;13.584;2023-10-31T18:09:06;99962.06;;;8.63;87.64
23016;BME280;11674;52.428;13.584;2023-10-31T18:14:13;99979.56;;;8.63;87.66
23016;BME280;11674;52.428;13.584;2023-10-31T18:19:20;99986.97;;;8.68;87.63
23016;BME280;11674;52.428;13.584;2023-10-31T18:24:27;99995.78;;;8.70;87.75
23016;BME280;11674;52.428;13.584;2023-10-31T18:29:34;99995.78;;;8.70;87.36
23016;BME280;11674;52.428;13.584;2023-10-31T18:34:41;99996.31;;;8.72;87.64
23016;BME280;11674;52.428;13.584;2023-10-31T18:39:48;100001.22;;;8.75;87.50
23016;BME280;11674;52.428;13.584;2023-10-31T18:44:55;100019.69;;;8.79;87.53
23016;BME280;11674;52.428;13.584;2023-10-31T18:50:02;100029.56;;;8.85;87.52
23016;BME280;11674;52.428;13.584;2023-10-31T18:55:09;100039.72;;;8.90;87.27
23016;BME280;11674;52.428;13.584;2023-10-31T19:00:23;100048.56;;;8.92;87.10
23016;BME280;11674;52.428;13.584;2023-10-31T19:05:30;100056.09;;;8.91;87.06
23016;BME280;11674;52.428;13.584;2023-10-31T19:10:37;100057.88;;;8.87;86.92
23016;BME280;11674;52.428;13.584;2023-10-31T19:15:44;100079.31;;;8.87;86.92
23016;BME280;11674;52.428;13.584;2023-10-31T19:20:52;100076.53;;;8.87;86.89
23016;BME280;11674;52.428;13.584;2023-10-31T19:25:59;100088.00;;;8.85;87.19
23016;BME280;11674;52.428;13.584;2023-10-31T19:31:06;100091.56;;;8.86;86.76
23016;BME280;11674;52.428;13.584;2023-10-31T19:36:13;100100.56;;;8.83;87.18
23016;BME280;11674;52.428;13.584;2023-10-31T19:41:20;100109.72;;;8.83;86.85
23016;BME280;11674;52.428;13.584;2023-10-31T19:46:27;100112.63;;;8.78;86.54
23016;BME280;11674;52.428;13.584;2023-10-31T19:51:34;100115.69;;;8.68;86.08
23016;BME280;11674;52.428;13.584;2023-10-31T19:56:41;100128.53;;;8.56;85.93
23016;BME280;11674;52.428;13.584;2023-10-31T20:01:48;100135.16;;;8.46;85.75
23016;BME280;11674;52.428;13.584;2023-10-31T20:06:55;100153.22;;;8.35;85.34
23016;BME280;11674;52.428;13.584;2023-10-31T20:12:02;100164.91;;;8.24;85.23
23016;BME280;11674;52.428;13.584;2023-10-31T20:17:09;100162.66;;;8.12;85.16
23016;BME280;11674;52.428;13.584;2023-10-31T20:22:16;100167.63;;;8.02;85.54
23016;BME280;11674;52.428;13.584;2023-10-31T20:27:24;100170.28;;;7.93;85.84
23016;BME280;11674;52.428;13.584;2023-10-31T20:32:30;100197.06;;;7.89;86.11
23016;BME280;11674;52.428;13.584;2023-10-31T20:37:37;100191.28;;;7.86;86.39
23016;BME280;11674;52.428;13.584;2023-10-31T20:42:44;100217.22;;;7.81;86.47
23016;BME280;11674;52.428;13.584;2023-10-31T20:47:54;100214.34;;;7.73;86.55
23016;BME280;11674;52.428;13.584;2023-10-31T20:53:01;100236.75;;;7.63;86.25
23016;BME280;11674;52.428;13.584;2023-10-31T20:58:08;100246.19;;;7.48;86.32
23016;BME280;11674;52.428;13.584;2023-10-31T21:03:15;100238.28;;;7.42;86.51
23016;BME280;11674;52.428;13.584;2023-10-31T21:08:22;100245.97;;;7.31;86.18
23016;BME280;11674;52.428;13.584;2023-10-31T21:13:38;100253.13;;;7.19;86.08
23016;BME280;11674;52.428;13.584;2023-10-31T21:18:45;100256.91;;;7.09;86.31
23016;BME280;11674;52.428;13.584;2023-10-31T21:23:52;100258.94;;;7.04;86.08
23016;BME280;11674;52.428;13.584;2023-10-31T21:29:02;100268.78;;;6.96;86.01
23016;BME280;11674;52.428;13.584;2023-10-31T21:34:08;100269.47;;;6.88;86.17
23016;BME280;11674;52.428;13.584;2023-10-31T21:39:15;100281.44;;;6.84;86.23
23016;BME280;11674;52.428;13.584;2023-10-31T21:44:22;100284.94;;;6.76;86.20
23016;BME280;11674;52.428;13.584;2023-10-31T21:49:31;100294.44;;;6.70;86.34
23016;BME280;11674;52.428;13.584;2023-10-31T21:54:41;100303.72;;;6.60;86.12
23016;BME280;11674;52.428;13.584;2023-10-31T21:59:48;100319.06;;;6.53;86.29
23016;BME280;11674;52.428;13.584;2023-10-31T22:04:55;100337.09;;;6.50;86.32
23016;BME280;11674;52.428;13.584;2023-10-31T22:10:02;100352.88;;;6.55;86.69
23016;BME280;11674;52.428;13.584;2023-10-31T22:15:12;100347.47;;;6.63;86.62
23016;BME280;11674;52.428;13.584;2023-10-31T22:20:22;100338.25;;;6.68;86.75
23016;BME280;11674;52.428;13.584;2023-10-31T22:25:28;100355.44;;;6.70;86.35
23016;BME280;11674;52.428;13.584;2023-10-31T22:30:35;100364.56;;;6.70;86.33
23016;BME280;11674;52.428;13.584;2023-10-31T22:35:42;100370.31;;;6.74;86.40
23016;BME280;11674;52.428;13.584;2023-10-31T22:40:49;100385.00;;;6.74;86.29
23016;BME280;11674;52.428;13.584;2023-10-31T22:45:59;100377.00;;;6.73;86.36
23016;BME280;11674;52.428;13.584;2023-10-31T22:51:05;100392.03;;;6.67;86.02
23016;BME280;11674;52.428;13.584;2023-10-31T22:56:12;100403.19;;;6.62;86.19
23016;BME280;11674;52.428;13.584;2023-10-31T23:01:19;100410.72;;;6.61;86.31
23016;BME280;11674;52.428;13.584;2023-10-31T23:06:29;100406.88;;;6.57;86.23
23016;BME280;11674;52.428;13.584;2023-10-31T23:11:36;100412.41;;;6.57;86.51
23016;BME280;11674;52.428;13.584;2023-10-31T23:16:50;100423.28;;;6.54;86.14
23016;BME280;11674;52.428;13.584;2023-10-31T23:22:02;100419.72;;;6.48;85.95
23016;BME280;11674;52.428;13.584;2023-10-31T23:27:09;100420.03;;;6.42;86.08
23016;BME280;11674;52.428;13.584;2023-10-31T23:32:17;100425.06;;;6.40;85.84
23016;BME280;11674;52.428;13.584;2023-10-31T23:37:27;100424.00;;;6.36;86.07
23016;BME280;11674;52.428;13.584;2023-10-31T23:42:34;100427.31;;;6.38;86.23
23016;BME280;11674;52.428;13.584;2023-10-31T23:47:44;100427.53;;;6.41;86.39
23016;BME280;11674;52.428;13.584;2023-10-31T23:52:51;100439.66;;;6.50;86.71
23016;BME280;11674;52.428;13.584;2023-10-31T23:57:58;100446.31;;;6.49;85.94
